sensor_id;sensor_type;location;lat;lon;timestamp;P1;durP1;ratioP1;P2;durP2;ratioP2
25263;SDS011;13211;51.796;5.808;2022-11-15T00:02:34;41.63;;;19.77;;
25263;SDS011;13211;51.796;5.808;2022-11-15T00:05:20;44.25;;;20.50;;
25263;SDS011;13211;51.796;5.808;2022-11-15T00:08:06;41.45;;;19.95;;
25263;SDS011;13211;51.796;5.808;2022-11-15T00:10:54;41.60;;;20.20;;
25263;SDS011;13211;51.796;5.808;2022-11-15T00:13:40;46.42;;;20.58;;
25263;SDS011;13211;51.796;5.808;2022-11-15T00:16:26;41.72;;;20.00;;
25263;SDS011;13211;51.796;5.808;2022-11-15T00:19:14;41.83;;;20.48;;
25263;SDS011;13211;51.796;5.808;2022-11-15T00:22:03;46.92;;;21.42;;
25263;SDS011;13211;51.796;5.808;2022-11-15T00:24:49;49.10;;;20.20;;
25263;SDS011;13211;51.796;5.808;2022-11-15T00:27:35;49.55;;;21.67;;
25263;SDS011;13211;51.796;5.808;2022-11-15T00:30:22;49.58;;;20.58;;
25263;SDS011;13211;51.796;5.808;2022-11-15T00:33:08;46.28;;;20.15;;
25263;SDS011;13211;51.796;5.808;2022-11-15T00:35:59;43.05;;;20.48;;
25263;SDS011;13211;51.796;5.808;2022-11-15T00:38:47;43.03;;;20.23;;
25263;SDS011;13211;51.796;5.808;2022-11-15T00:41:34;45.50;;;21.33;;
25263;SDS011;13211;51.796;5.808;2022-11-15T00:44:21;44.80;;;21.75;;
25263;SDS011;13211;51.796;5.808;2022-11-15T00:47:07;49.10;;;21.90;;
25263;SDS011;13211;51.796;5.808;2022-11-15T00:49:54;45.17;;;22.25;;
25263;SDS011;13211;51.796;5.808;2022-11-15T00:52:40;42.03;;;20.75;;
25263;SDS011;13211;51.796;5.808;2022-11-15T00:55:26;45.85;;;21.90;;
25263;SDS011;13211;51.796;5.808;2022-11-15T00:58:16;45.22;;;21.77;;
25263;SDS011;13211;51.796;5.808;2022-11-15T01:03:38;41.97;;;20.85;;
25263;SDS011;13211;51.796;5.808;2022-11-15T01:06:24;45.28;;;21.25;;
25263;SDS011;13211;51.796;5.808;2022-11-15T01:09:11;45.88;;;20.63;;
25263;SDS011;13211;51.796;5.808;2022-11-15T01:11:58;43.70;;;21.45;;
25263;SDS011;13211;51.796;5.808;2022-11-15T01:14:47;39.72;;;21.67;;
25263;SDS011;13211;51.796;5.808;2022-11-15T01:17:33;42.05;;;21.02;;
25263;SDS011;13211;51.796;5.808;2022-11-15T01:20:19;48.80;;;21.75;;
25263;SDS011;13211;51.796;5.808;2022-11-15T01:23:06;39.72;;;21.52;;
25263;SDS011;13211;51.796;5.808;2022-11-15T01:25:57;43.45;;;21.38;;
25263;SDS011;13211;51.796;5.808;2022-11-15T01:28:44;33.88;;;20.00;;
25263;SDS011;13211;51.796;5.808;2022-11-15T01:31:30;40.83;;;20.10;;
25263;SDS011;13211;51.796;5.808;2022-11-15T01:34:17;37.47;;;19.80;;
25263;SDS011;13211;51.796;5.808;2022-11-15T01:37:06;37.33;;;20.20;;
25263;SDS011;13211;51.796;5.808;2022-11-15T01:39:52;36.13;;;20.48;;
25263;SDS011;13211;51.796;5.808;2022-11-15T01:42:38;33.40;;;19.23;;
25263;SDS011;13211;51.796;5.808;2022-11-15T01:45:25;37.00;;;19.65;;
25263;SDS011;13211;51.796;5.808;2022-11-15T01:48:11;34.47;;;19.63;;
25263;SDS011;13211;51.796;5.808;2022-11-15T01:50:58;37.95;;;20.13;;
25263;SDS011;13211;51.796;5.808;2022-11-15T01:53:47;34.60;;;19.38;;
25263;SDS011;13211;51.796;5.808;2022-11-15T01:56:36;40.65;;;21.08;;
25263;SDS011;13211;51.796;5.808;2022-11-15T01:59:23;42.20;;;21.00;;
25263;SDS011;13211;51.796;5.808;2022-11-15T02:02:10;36.10;;;20.27;;
25263;SDS011;13211;51.796;5.808;2022-11-15T02:04:57;38.17;;;20.73;;
25263;SDS011;13211;51.796;5.808;2022-11-15T02:07:44;37.13;;;20.95;;
25263;SDS011;13211;51.796;5.808;2022-11-15T02:10:30;37.80;;;20.00;;
25263;SDS011;13211;51.796;5.808;2022-11-15T02:13:19;41.70;;;20.00;;
25263;SDS011;13211;51.796;5.808;2022-11-15T02:36:10;35.23;;;19.87;;
25263;SDS011;13211;51.796;5.808;2022-11-15T02:39:03;35.95;;;20.42;;
25263;SDS011;13211;51.796;5.808;2022-11-15T02:42:07;34.67;;;19.60;;
25263;SDS011;13211;51.796;5.808;2022-11-15T02:45:17;30.58;;;18.45;;
25263;SDS011;13211;51.796;5.808;2022-11-15T02:48:06;39.80;;;20.13;;
25263;SDS011;13211;51.796;5.808;2022-11-15T02:50:53;33.85;;;19.45;;
25263;SDS011;13211;51.796;5.808;2022-11-15T02:53:40;36.97;;;19.63;;
25263;SDS011;13211;51.796;5.808;2022-11-15T02:56:26;45.67;;;21.95;;
25263;SDS011;13211;51.796;5.808;2022-11-15T02:59:14;31.20;;;18.73;;
25263;SDS011;13211;51.796;5.808;2022-11-15T03:04:56;30.38;;;19.15;;
25263;SDS011;13211;51.796;5.808;2022-11-15T03:13:48;34.72;;;19.67;;
25263;SDS011;13211;51.796;5.808;2022-11-15T03:16:37;38.47;;;18.88;;
25263;SDS011;13211;51.796;5.808;2022-11-15T03:22:31;36.30;;;20.05;;
25263;SDS011;13211;51.796;5.808;2022-11-15T03:25:19;37.72;;;20.25;;
25263;SDS011;13211;51.796;5.808;2022-11-15T03:28:08;37.40;;;20.55;;
25263;SDS011;13211;51.796;5.808;2022-11-15T03:30:55;36.10;;;20.27;;
25263;SDS011;13211;51.796;5.808;2022-11-15T03:33:42;35.30;;;19.83;;
25263;SDS011;13211;51.796;5.808;2022-11-15T03:36:32;37.85;;;20.55;;
25263;SDS011;13211;51.796;5.808;2022-11-15T03:47:54;36.75;;;22.10;;
25263;SDS011;13211;51.796;5.808;2022-11-15T03:50:47;40.53;;;21.92;;
25263;SDS011;13211;51.796;5.808;2022-11-15T03:53:35;37.60;;;21.38;;
25263;SDS011;13211;51.796;5.808;2022-11-15T03:56:21;38.15;;;22.67;;
25263;SDS011;13211;51.796;5.808;2022-11-15T03:59:07;42.17;;;22.45;;
25263;SDS011;13211;51.796;5.808;2022-11-15T04:01:54;40.28;;;22.15;;
25263;SDS011;13211;51.796;5.808;2022-11-15T04:04:40;40.28;;;21.58;;
25263;SDS011;13211;51.796;5.808;2022-11-15T04:07:26;37.17;;;23.20;;
25263;SDS011;13211;51.796;5.808;2022-11-15T04:10:14;38.50;;;22.73;;
25263;SDS011;13211;51.796;5.808;2022-11-15T04:13:02;39.13;;;23.40;;
25263;SDS011;13211;51.796;5.808;2022-11-15T04:15:48;40.08;;;23.05;;
25263;SDS011;13211;51.796;5.808;2022-11-15T04:18:34;39.95;;;22.65;;
25263;SDS011;13211;51.796;5.808;2022-11-15T04:21:21;41.83;;;22.30;;
25263;SDS011;13211;51.796;5.808;2022-11-15T04:24:26;39.10;;;21.67;;
25263;SDS011;13211;51.796;5.808;2022-11-15T04:27:12;47.78;;;23.05;;
25263;SDS011;13211;51.796;5.808;2022-11-15T04:29:59;39.45;;;22.83;;
25263;SDS011;13211;51.796;5.808;2022-11-15T04:32:45;40.40;;;21.73;;
25263;SDS011;13211;51.796;5.808;2022-11-15T04:35:31;47.72;;;23.15;;
25263;SDS011;13211;51.796;5.808;2022-11-15T04:38:18;36.03;;;20.55;;
25263;SDS011;13211;51.796;5.808;2022-11-15T04:41:05;39.45;;;23.48;;
25263;SDS011;13211;51.796;5.808;2022-11-15T04:43:51;43.08;;;22.60;;
25263;SDS011;13211;51.796;5.808;2022-11-15T04:46:37;39.35;;;23.00;;
25263;SDS011;13211;51.796;5.808;2022-11-15T04:49:23;40.20;;;22.20;;
25263;SDS011;13211;51.796;5.808;2022-11-15T04:52:10;36.33;;;21.75;;
25263;SDS011;13211;51.796;5.808;2022-11-15T04:54:56;39.83;;;22.52;;
25263;SDS011;13211;51.796;5.808;2022-11-15T04:57:58;41.05;;;23.00;;
25263;SDS011;13211;51.796;5.808;2022-11-15T05:00:46;37.35;;;22.30;;
25263;SDS011;13211;51.796;5.808;2022-11-15T05:03:26;46.25;;;23.13;;
25263;SDS011;13211;51.796;5.808;2022-11-15T05:06:31;45.92;;;22.27;;
25263;SDS011;13211;51.796;5.808;2022-11-15T05:09:20;43.28;;;22.88;;
25263;SDS011;13211;51.796;5.808;2022-11-15T05:12:09;41.22;;;22.85;;
25263;SDS011;13211;51.796;5.808;2022-11-15T05:14:58;38.92;;;22.42;;
25263;SDS011;13211;51.796;5.808;2022-11-15T05:17:47;44.53;;;24.00;;
25263;SDS011;13211;51.796;5.808;2022-11-15T05:20:33;42.85;;;22.05;;
25263;SDS011;13211;51.796;5.808;2022-11-15T05:23:20;44.70;;;23.52;;
25263;SDS011;13211;51.796;5.808;2022-11-15T05:26:06;40.92;;;22.75;;
25263;SDS011;13211;51.796;5.808;2022-11-15T05:28:54;44.42;;;22.00;;
25263;SDS011;13211;51.796;5.808;2022-11-15T05:31:43;40.25;;;21.80;;
25263;SDS011;13211;51.796;5.808;2022-11-15T05:34:32;38.45;;;21.65;;
25263;SDS011;13211;51.796;5.808;2022-11-15T05:37:19;41.83;;;22.90;;
25263;SDS011;13211;51.796;5.808;2022-11-15T05:40:05;39.45;;;23.00;;
25263;SDS011;13211;51.796;5.808;2022-11-15T05:42:51;39.05;;;22.05;;
25263;SDS011;13211;51.796;5.808;2022-11-15T05:45:38;48.15;;;22.70;;
25263;SDS011;13211;51.796;5.808;2022-11-15T05:48:25;36.47;;;21.75;;
25263;SDS011;13211;51.796;5.808;2022-11-15T05:51:11;42.13;;;21.95;;
25263;SDS011;13211;51.796;5.808;2022-11-15T05:53:58;39.53;;;21.60;;
25263;SDS011;13211;51.796;5.808;2022-11-15T05:56:46;34.75;;;21.95;;
25263;SDS011;13211;51.796;5.808;2022-11-15T05:59:33;36.90;;;21.45;;
25263;SDS011;13211;51.796;5.808;2022-11-15T06:02:19;41.30;;;21.08;;
25263;SDS011;13211;51.796;5.808;2022-11-15T06:05:06;37.25;;;20.27;;
25263;SDS011;13211;51.796;5.808;2022-11-15T06:07:52;38.95;;;21.58;;
25263;SDS011;13211;51.796;5.808;2022-11-15T06:10:38;32.92;;;20.05;;
25263;SDS011;13211;51.796;5.808;2022-11-15T06:13:24;34.25;;;20.50;;
25263;SDS011;13211;51.796;5.808;2022-11-15T06:16:10;34.35;;;20.30;;
25263;SDS011;13211;51.796;5.808;2022-11-15T06:18:59;34.50;;;20.25;;
25263;SDS011;13211;51.796;5.808;2022-11-15T06:21:46;35.92;;;20.10;;
25263;SDS011;13211;51.796;5.808;2022-11-15T06:24:33;36.55;;;20.38;;
25263;SDS011;13211;51.796;5.808;2022-11-15T06:27:19;33.72;;;19.75;;
25263;SDS011;13211;51.796;5.808;2022-11-15T06:30:07;32.63;;;19.65;;
25263;SDS011;13211;51.796;5.808;2022-11-15T06:33:03;34.00;;;19.50;;
25263;SDS011;13211;51.796;5.808;2022-11-15T06:35:49;35.97;;;19.40;;
25263;SDS011;13211;51.796;5.808;2022-11-15T06:38:42;32.75;;;17.88;;
25263;SDS011;13211;51.796;5.808;2022-11-15T06:41:35;32.25;;;19.25;;
25263;SDS011;13211;51.796;5.808;2022-11-15T06:44:22;32.53;;;18.25;;
25263;SDS011;13211;51.796;5.808;2022-11-15T06:47:08;30.77;;;18.85;;
25263;SDS011;13211;51.796;5.808;2022-11-15T06:49:58;30.33;;;18.42;;
25263;SDS011;13211;51.796;5.808;2022-11-15T06:52:45;37.88;;;19.55;;
25263;SDS011;13211;51.796;5.808;2022-11-15T06:55:31;31.83;;;19.27;;
25263;SDS011;13211;51.796;5.808;2022-11-15T06:58:17;34.15;;;20.02;;
25263;SDS011;13211;51.796;5.808;2022-11-15T07:01:05;41.80;;;20.50;;
25263;SDS011;13211;51.796;5.808;2022-11-15T07:03:53;32.60;;;19.38;;
25263;SDS011;13211;51.796;5.808;2022-11-15T07:06:40;35.17;;;20.60;;
25263;SDS011;13211;51.796;5.808;2022-11-15T07:09:26;31.05;;;19.80;;
25263;SDS011;13211;51.796;5.808;2022-11-15T07:12:12;35.42;;;19.75;;
25263;SDS011;13211;51.796;5.808;2022-11-15T07:15:00;34.05;;;19.60;;
25263;SDS011;13211;51.796;5.808;2022-11-15T07:17:47;30.73;;;18.83;;
25263;SDS011;13211;51.796;5.808;2022-11-15T07:20:34;38.45;;;19.60;;
25263;SDS011;13211;51.796;5.808;2022-11-15T07:23:20;36.95;;;19.08;;
25263;SDS011;13211;51.796;5.808;2022-11-15T07:26:07;34.72;;;18.42;;
25263;SDS011;13211;51.796;5.808;2022-11-15T07:28:53;30.88;;;19.65;;
25263;SDS011;13211;51.796;5.808;2022-11-15T07:31:40;36.75;;;19.63;;
25263;SDS011;13211;51.796;5.808;2022-11-15T07:34:26;30.40;;;18.38;;
25263;SDS011;13211;51.796;5.808;2022-11-15T07:37:12;29.42;;;18.00;;
25263;SDS011;13211;51.796;5.808;2022-11-15T07:40:01;32.63;;;17.55;;
25263;SDS011;13211;51.796;5.808;2022-11-15T07:42:47;38.42;;;18.80;;
25263;SDS011;13211;51.796;5.808;2022-11-15T07:45:44;28.83;;;17.17;;
25263;SDS011;13211;51.796;5.808;2022-11-15T07:48:30;30.35;;;18.13;;
25263;SDS011;13211;51.796;5.808;2022-11-15T07:51:28;29.08;;;16.33;;
25263;SDS011;13211;51.796;5.808;2022-11-15T07:54:15;30.83;;;18.50;;
25263;SDS011;13211;51.796;5.808;2022-11-15T07:57:02;30.50;;;19.13;;
25263;SDS011;13211;51.796;5.808;2022-11-15T07:59:51;29.73;;;17.00;;
25263;SDS011;13211;51.796;5.808;2022-11-15T08:02:38;33.20;;;18.65;;
25263;SDS011;13211;51.796;5.808;2022-11-15T08:05:25;34.53;;;18.75;;
25263;SDS011;13211;51.796;5.808;2022-11-15T08:08:13;33.83;;;19.58;;
25263;SDS011;13211;51.796;5.808;2022-11-15T08:11:00;40.08;;;20.15;;
25263;SDS011;13211;51.796;5.808;2022-11-15T08:13:46;37.42;;;19.48;;
25263;SDS011;13211;51.796;5.808;2022-11-15T08:16:32;27.40;;;17.73;;
25263;SDS011;13211;51.796;5.808;2022-11-15T08:19:18;35.50;;;17.60;;
25263;SDS011;13211;51.796;5.808;2022-11-15T08:22:05;31.08;;;18.98;;
25263;SDS011;13211;51.796;5.808;2022-11-15T08:24:51;33.42;;;18.00;;
25263;SDS011;13211;51.796;5.808;2022-11-15T08:27:37;29.17;;;17.08;;
25263;SDS011;13211;51.796;5.808;2022-11-15T08:30:23;28.70;;;16.45;;
25263;SDS011;13211;51.796;5.808;2022-11-15T08:33:12;26.42;;;15.70;;
25263;SDS011;13211;51.796;5.808;2022-11-15T08:36:00;29.60;;;15.52;;
25263;SDS011;13211;51.796;5.808;2022-11-15T08:38:46;28.38;;;15.65;;
25263;SDS011;13211;51.796;5.808;2022-11-15T08:41:35;24.60;;;14.60;;
25263;SDS011;13211;51.796;5.808;2022-11-15T08:44:22;30.95;;;15.77;;
25263;SDS011;13211;51.796;5.808;2022-11-15T08:47:12;25.67;;;15.50;;
25263;SDS011;13211;51.796;5.808;2022-11-15T08:49:59;24.35;;;14.90;;
25263;SDS011;13211;51.796;5.808;2022-11-15T08:52:47;27.88;;;14.65;;
25263;SDS011;13211;51.796;5.808;2022-11-15T08:55:36;28.60;;;15.00;;
25263;SDS011;13211;51.796;5.808;2022-11-15T08:58:22;25.80;;;14.60;;
25263;SDS011;13211;51.796;5.808;2022-11-15T09:01:19;21.83;;;14.02;;
25263;SDS011;13211;51.796;5.808;2022-11-15T09:04:05;31.55;;;14.13;;
25263;SDS011;13211;51.796;5.808;2022-11-15T09:06:51;26.27;;;13.88;;
25263;SDS011;13211;51.796;5.808;2022-11-15T09:09:38;26.77;;;13.60;;
25263;SDS011;13211;51.796;5.808;2022-11-15T09:12:24;22.50;;;12.55;;
25263;SDS011;13211;51.796;5.808;2022-11-15T09:15:11;22.13;;;13.13;;
25263;SDS011;13211;51.796;5.808;2022-11-15T09:17:58;19.67;;;11.85;;
25263;SDS011;13211;51.796;5.808;2022-11-15T09:20:45;20.20;;;11.05;;
25263;SDS011;13211;51.796;5.808;2022-11-15T09:23:31;22.33;;;11.32;;
25263;SDS011;13211;51.796;5.808;2022-11-15T09:26:18;23.25;;;11.20;;
25263;SDS011;13211;51.796;5.808;2022-11-15T09:29:04;23.40;;;11.18;;
25263;SDS011;13211;51.796;5.808;2022-11-15T09:31:54;20.67;;;11.15;;
25263;SDS011;13211;51.796;5.808;2022-11-15T09:34:40;18.23;;;9.87;;
25263;SDS011;13211;51.796;5.808;2022-11-15T09:37:27;17.90;;;9.68;;
25263;SDS011;13211;51.796;5.808;2022-11-15T09:40:14;15.90;;;9.73;;
25263;SDS011;13211;51.796;5.808;2022-11-15T09:43:14;20.55;;;9.98;;
25263;SDS011;13211;51.796;5.808;2022-11-15T09:48:55;21.40;;;10.50;;
25263;SDS011;13211;51.796;5.808;2022-11-15T09:51:47;13.32;;;8.90;;
25263;SDS011;13211;51.796;5.808;2022-11-15T09:57:09;18.20;;;8.73;;
25263;SDS011;13211;51.796;5.808;2022-11-15T10:05:21;13.65;;;8.02;;
25263;SDS011;13211;51.796;5.808;2022-11-15T10:10:40;12.10;;;5.63;;
25263;SDS011;13211;51.796;5.808;2022-11-15T10:13:13;8.90;;;5.70;;
25263;SDS011;13211;51.796;5.808;2022-11-15T10:15:42;11.30;;;5.47;;
25263;SDS011;13211;51.796;5.808;2022-11-15T10:18:16;12.63;;;5.47;;
25263;SDS011;13211;51.796;5.808;2022-11-15T10:20:47;10.50;;;5.22;;
25263;SDS011;13211;51.796;5.808;2022-11-15T10:23:18;7.13;;;3.60;;
25263;SDS011;13211;51.796;5.808;2022-11-15T10:25:46;5.32;;;3.40;;
25263;SDS011;13211;51.796;5.808;2022-11-15T10:28:21;7.40;;;3.85;;
25263;SDS011;13211;51.796;5.808;2022-11-15T10:30:51;9.60;;;4.13;;
25263;SDS011;13211;51.796;5.808;2022-11-15T10:33:31;8.23;;;3.47;;
25263;SDS011;13211;51.796;5.808;2022-11-15T10:36:26;5.80;;;3.20;;
25263;SDS011;13211;51.796;5.808;2022-11-15T10:38:56;7.10;;;2.92;;
25263;SDS011;13211;51.796;5.808;2022-11-15T10:46:35;8.15;;;2.30;;
25263;SDS011;13211;51.796;5.808;2022-11-15T10:49:13;5.80;;;2.10;;
25263;SDS011;13211;51.796;5.808;2022-11-15T10:51:46;4.68;;;1.90;;
25263;SDS011;13211;51.796;5.808;2022-11-15T10:54:36;5.78;;;2.03;;
25263;SDS011;13211;51.796;5.808;2022-11-15T10:57:14;51.17;;;31.50;;
25263;SDS011;13211;51.796;5.808;2022-11-15T10:59:53;21.52;;;14.00;;
25263;SDS011;13211;51.796;5.808;2022-11-15T11:02:29;7.82;;;2.38;;
25263;SDS011;13211;51.796;5.808;2022-11-15T11:04:58;8.13;;;2.10;;
25263;SDS011;13211;51.796;5.808;2022-11-15T11:07:32;5.70;;;2.03;;
25263;SDS011;13211;51.796;5.808;2022-11-15T11:12:31;7.97;;;1.80;;
25263;SDS011;13211;51.796;5.808;2022-11-15T11:15:00;7.60;;;1.92;;
25263;SDS011;13211;51.796;5.808;2022-11-15T11:17:33;3.58;;;1.58;;
25263;SDS011;13211;51.796;5.808;2022-11-15T11:22:41;5.47;;;1.70;;
25263;SDS011;13211;51.796;5.808;2022-11-15T11:25:19;6.50;;;1.75;;
25263;SDS011;13211;51.796;5.808;2022-11-15T11:30:19;8.52;;;1.83;;
25263;SDS011;13211;51.796;5.808;2022-11-15T11:33:10;5.10;;;1.90;;
25263;SDS011;13211;51.796;5.808;2022-11-15T11:49:19;4.80;;;1.63;;
25263;SDS011;13211;51.796;5.808;2022-11-15T11:54:22;5.53;;;1.58;;
25263;SDS011;13211;51.796;5.808;2022-11-15T11:56:52;5.13;;;1.85;;
25263;SDS011;13211;51.796;5.808;2022-11-15T11:59:23;7.90;;;1.83;;
25263;SDS011;13211;51.796;5.808;2022-11-15T12:01:53;5.40;;;1.70;;
25263;SDS011;13211;51.796;5.808;2022-11-15T12:04:27;7.43;;;1.63;;
25263;SDS011;13211;51.796;5.808;2022-11-15T12:07:01;5.00;;;1.45;;
25263;SDS011;13211;51.796;5.808;2022-11-15T12:09:35;3.40;;;1.30;;
25263;SDS011;13211;51.796;5.808;2022-11-15T12:12:23;7.38;;;2.22;;
25263;SDS011;13211;51.796;5.808;2022-11-15T12:15:03;4.82;;;1.25;;
25263;SDS011;13211;51.796;5.808;2022-11-15T12:17:32;5.82;;;1.20;;
25263;SDS011;13211;51.796;5.808;2022-11-15T12:20:02;9.15;;;1.42;;
25263;SDS011;13211;51.796;5.808;2022-11-15T12:22:36;2.35;;;1.05;;
25263;SDS011;13211;51.796;5.808;2022-11-15T12:27:54;4.72;;;1.05;;
25263;SDS011;13211;51.796;5.808;2022-11-15T12:30:23;3.47;;;1.30;;
25263;SDS011;13211;51.796;5.808;2022-11-15T12:32:54;2.97;;;1.08;;
25263;SDS011;13211;51.796;5.808;2022-11-15T12:35:37;5.68;;;1.20;;
25263;SDS011;13211;51.796;5.808;2022-11-15T12:38:09;10.20;;;1.55;;
25263;SDS011;13211;51.796;5.808;2022-11-15T12:40:38;3.03;;;1.05;;
25263;SDS011;13211;51.796;5.808;2022-11-15T12:45:41;5.68;;;1.27;;
25263;SDS011;13211;51.796;5.808;2022-11-15T12:58:28;7.72;;;1.20;;
25263;SDS011;13211;51.796;5.808;2022-11-15T13:01:00;6.43;;;1.48;;
25263;SDS011;13211;51.796;5.808;2022-11-15T13:04:26;6.18;;;1.20;;
25263;SDS011;13211;51.796;5.808;2022-11-15T13:06:36;6.03;;;0.90;;
25263;SDS011;13211;51.796;5.808;2022-11-15T13:09:49;3.10;;;1.00;;
25263;SDS011;13211;51.796;5.808;2022-11-15T13:11:52;4.57;;;1.10;;
25263;SDS011;13211;51.796;5.808;2022-11-15T13:19:52;3.90;;;1.40;;
25263;SDS011;13211;51.796;5.808;2022-11-15T13:22:21;5.25;;;1.20;;
25263;SDS011;13211;51.796;5.808;2022-11-15T13:27:47;4.70;;;1.33;;
25263;SDS011;13211;51.796;5.808;2022-11-15T13:30:18;4.47;;;1.52;;
25263;SDS011;13211;51.796;5.808;2022-11-15T13:32:48;4.38;;;1.27;;
25263;SDS011;13211;51.796;5.808;2022-11-15T13:35:26;20.20;;;1.77;;
25263;SDS011;13211;51.796;5.808;2022-11-15T13:37:58;5.40;;;1.45;;
25263;SDS011;13211;51.796;5.808;2022-11-15T13:40:36;4.45;;;1.30;;
25263;SDS011;13211;51.796;5.808;2022-11-15T13:48:32;4.75;;;1.20;;
25263;SDS011;13211;51.796;5.808;2022-11-15T13:53:31;4.40;;;1.20;;
25263;SDS011;13211;51.796;5.808;2022-11-15T13:56:00;4.95;;;1.38;;
25263;SDS011;13211;51.796;5.808;2022-11-15T13:58:30;7.57;;;1.83;;
25263;SDS011;13211;51.796;5.808;2022-11-15T14:01:03;2.63;;;1.08;;
25263;SDS011;13211;51.796;5.808;2022-11-15T14:03:33;6.70;;;1.70;;
25263;SDS011;13211;51.796;5.808;2022-11-15T14:08:39;6.20;;;1.02;;
25263;SDS011;13211;51.796;5.808;2022-11-15T14:11:16;4.45;;;1.15;;
25263;SDS011;13211;51.796;5.808;2022-11-15T14:16:34;6.32;;;0.95;;
25263;SDS011;13211;51.796;5.808;2022-11-15T14:19:03;3.60;;;1.00;;
25263;SDS011;13211;51.796;5.808;2022-11-15T14:21:31;4.00;;;1.00;;
25263;SDS011;13211;51.796;5.808;2022-11-15T14:24:19;8.18;;;1.20;;
25263;SDS011;13211;51.796;5.808;2022-11-15T14:26:48;6.15;;;1.20;;
25263;SDS011;13211;51.796;5.808;2022-11-15T14:29:23;6.57;;;1.00;;
25263;SDS011;13211;51.796;5.808;2022-11-15T14:31:51;4.47;;;1.05;;
25263;SDS011;13211;51.796;5.808;2022-11-15T14:34:19;5.47;;;1.05;;
25263;SDS011;13211;51.796;5.808;2022-11-15T14:36:49;7.25;;;1.13;;
25263;SDS011;13211;51.796;5.808;2022-11-15T14:39:18;3.35;;;1.55;;
25263;SDS011;13211;51.796;5.808;2022-11-15T14:41:49;4.22;;;1.02;;
25263;SDS011;13211;51.796;5.808;2022-11-15T14:44:18;10.45;;;1.27;;
25263;SDS011;13211;51.796;5.808;2022-11-15T14:46:48;6.65;;;1.00;;
25263;SDS011;13211;51.796;5.808;2022-11-15T14:49:16;6.40;;;1.13;;
25263;SDS011;13211;51.796;5.808;2022-11-15T14:51:46;4.25;;;1.20;;
25263;SDS011;13211;51.796;5.808;2022-11-15T14:54:14;5.60;;;1.40;;
25263;SDS011;13211;51.796;5.808;2022-11-15T14:56:42;4.88;;;1.50;;
25263;SDS011;13211;51.796;5.808;2022-11-15T14:59:11;5.68;;;1.30;;
25263;SDS011;13211;51.796;5.808;2022-11-15T15:01:39;5.03;;;1.35;;
25263;SDS011;13211;51.796;5.808;2022-11-15T15:04:08;7.00;;;1.33;;
25263;SDS011;13211;51.796;5.808;2022-11-15T15:06:36;5.60;;;1.25;;
25263;SDS011;13211;51.796;5.808;2022-11-15T15:09:04;3.33;;;1.33;;
25263;SDS011;13211;51.796;5.808;2022-11-15T15:11:32;5.63;;;1.42;;
25263;SDS011;13211;51.796;5.808;2022-11-15T15:14:00;12.20;;;1.70;;
25263;SDS011;13211;51.796;5.808;2022-11-15T15:16:28;10.40;;;1.90;;
25263;SDS011;13211;51.796;5.808;2022-11-15T15:18:56;4.93;;;1.33;;
25263;SDS011;13211;51.796;5.808;2022-11-15T15:21:24;3.72;;;1.45;;
25263;SDS011;13211;51.796;5.808;2022-11-15T15:24:02;5.40;;;1.35;;
25263;SDS011;13211;51.796;5.808;2022-11-15T15:26:30;7.80;;;2.65;;
25263;SDS011;13211;51.796;5.808;2022-11-15T15:29:04;21.17;;;6.15;;
25263;SDS011;13211;51.796;5.808;2022-11-15T15:31:31;11.63;;;3.22;;
25263;SDS011;13211;51.796;5.808;2022-11-15T15:34:00;8.32;;;2.47;;
25263;SDS011;13211;51.796;5.808;2022-11-15T15:36:28;7.90;;;2.60;;
25263;SDS011;13211;51.796;5.808;2022-11-15T15:38:57;5.28;;;1.80;;
25263;SDS011;13211;51.796;5.808;2022-11-15T15:41:25;6.65;;;1.48;;
25263;SDS011;13211;51.796;5.808;2022-11-15T15:43:53;7.70;;;2.08;;
25263;SDS011;13211;51.796;5.808;2022-11-15T15:46:21;8.98;;;1.80;;
25263;SDS011;13211;51.796;5.808;2022-11-15T15:48:49;12.55;;;3.03;;
25263;SDS011;13211;51.796;5.808;2022-11-15T15:51:17;19.98;;;12.05;;
25263;SDS011;13211;51.796;5.808;2022-11-15T15:53:46;8.88;;;3.97;;
25263;SDS011;13211;51.796;5.808;2022-11-15T15:56:14;14.48;;;6.72;;
25263;SDS011;13211;51.796;5.808;2022-11-15T15:58:42;7.32;;;2.00;;
25263;SDS011;13211;51.796;5.808;2022-11-15T16:01:10;8.77;;;2.45;;
25263;SDS011;13211;51.796;5.808;2022-11-15T16:03:38;8.63;;;1.70;;
25263;SDS011;13211;51.796;5.808;2022-11-15T16:06:57;5.20;;;2.00;;
25263;SDS011;13211;51.796;5.808;2022-11-15T16:08:57;7.13;;;2.25;;
25263;SDS011;13211;51.796;5.808;2022-11-15T16:11:41;14.27;;;2.30;;
25263;SDS011;13211;51.796;5.808;2022-11-15T16:14:09;7.85;;;1.77;;
25263;SDS011;13211;51.796;5.808;2022-11-15T16:16:37;5.18;;;1.70;;
25263;SDS011;13211;51.796;5.808;2022-11-15T16:19:05;4.10;;;1.70;;
25263;SDS011;13211;51.796;5.808;2022-11-15T16:21:32;5.70;;;1.88;;
25263;SDS011;13211;51.796;5.808;2022-11-15T16:24:01;5.95;;;1.90;;
25263;SDS011;13211;51.796;5.808;2022-11-15T16:26:28;7.25;;;1.90;;
25263;SDS011;13211;51.796;5.808;2022-11-15T16:28:57;9.10;;;2.25;;
25263;SDS011;13211;51.796;5.808;2022-11-15T16:31:26;7.40;;;1.73;;
25263;SDS011;13211;51.796;5.808;2022-11-15T16:33:57;6.55;;;1.85;;
25263;SDS011;13211;51.796;5.808;2022-11-15T16:36:26;4.77;;;1.90;;
25263;SDS011;13211;51.796;5.808;2022-11-15T16:38:57;5.63;;;2.03;;
25263;SDS011;13211;51.796;5.808;2022-11-15T16:41:27;8.05;;;2.40;;
25263;SDS011;13211;51.796;5.808;2022-11-15T16:43:57;9.02;;;2.13;;
25263;SDS011;13211;51.796;5.808;2022-11-15T16:46:26;5.40;;;2.25;;
25263;SDS011;13211;51.796;5.808;2022-11-15T16:48:56;5.90;;;2.20;;
25263;SDS011;13211;51.796;5.808;2022-11-15T16:51:36;3.85;;;1.90;;
25263;SDS011;13211;51.796;5.808;2022-11-15T16:54:06;6.90;;;1.95;;
25263;SDS011;13211;51.796;5.808;2022-11-15T16:56:34;9.23;;;3.00;;
25263;SDS011;13211;51.796;5.808;2022-11-15T16:59:02;5.00;;;1.75;;
25263;SDS011;13211;51.796;5.808;2022-11-15T17:04:24;11.88;;;5.50;;
25263;SDS011;13211;51.796;5.808;2022-11-15T17:07:07;9.27;;;3.78;;
25263;SDS011;13211;51.796;5.808;2022-11-15T17:09:35;7.43;;;3.42;;
25263;SDS011;13211;51.796;5.808;2022-11-15T17:12:04;7.28;;;3.00;;
25263;SDS011;13211;51.796;5.808;2022-11-15T17:14:33;11.05;;;2.85;;
25263;SDS011;13211;51.796;5.808;2022-11-15T17:17:02;9.95;;;3.00;;
25263;SDS011;13211;51.796;5.808;2022-11-15T17:19:30;8.70;;;3.05;;
25263;SDS011;13211;51.796;5.808;2022-11-15T17:22:00;9.05;;;2.83;;
25263;SDS011;13211;51.796;5.808;2022-11-15T17:24:46;11.90;;;3.00;;
25263;SDS011;13211;51.796;5.808;2022-11-15T17:27:22;7.55;;;3.13;;
25263;SDS011;13211;51.796;5.808;2022-11-15T17:30:04;9.52;;;3.70;;
25263;SDS011;13211;51.796;5.808;2022-11-15T17:32:53;9.23;;;3.77;;
25263;SDS011;13211;51.796;5.808;2022-11-15T17:35:37;7.82;;;3.55;;
25263;SDS011;13211;51.796;5.808;2022-11-15T17:38:13;9.40;;;3.70;;
25263;SDS011;13211;51.796;5.808;2022-11-15T17:45:10;14.05;;;9.13;;
25263;SDS011;13211;51.796;5.808;2022-11-15T17:47:51;22.48;;;10.88;;
25263;SDS011;13211;51.796;5.808;2022-11-15T17:50:19;25.75;;;12.15;;
25263;SDS011;13211;51.796;5.808;2022-11-15T17:52:50;13.18;;;7.95;;
25263;SDS011;13211;51.796;5.808;2022-11-15T17:55:17;8.82;;;5.03;;
25263;SDS011;13211;51.796;5.808;2022-11-15T17:57:51;7.47;;;4.40;;
25263;SDS011;13211;51.796;5.808;2022-11-15T18:00:19;12.43;;;4.88;;
25263;SDS011;13211;51.796;5.808;2022-11-15T18:02:49;11.32;;;5.28;;
25263;SDS011;13211;51.796;5.808;2022-11-15T18:05:17;8.65;;;4.80;;